createdAt,value
2022-08-01T00:00:55.486Z,174.30
2022-08-01T00:03:24.615Z,173.97
2022-08-01T00:05:52.489Z,173.87
2022-08-01T00:08:20.325Z,173.90
2022-08-01T00:10:48.167Z,173.60
2022-08-01T00:13:16.187Z,174.10
2022-08-01T00:15:51.783Z,174.87
2022-08-01T00:18:24.006Z,174.63
2022-08-01T00:20:51.842Z,174.30
2022-08-01T00:23:19.658Z,173.83
2022-08-01T00:25:47.532Z,174.40
2022-08-01T00:28:15.564Z,173.80
2022-08-01T00:30:43.393Z,174.17
2022-08-01T00:33:11.269Z,173.93
2022-08-01T00:35:40.471Z,174.03
2022-08-01T00:38:08.365Z,174.40
2022-08-01T00:40:36.186Z,173.83
2022-08-01T00:43:04.022Z,173.83
2022-08-01T00:45:31.924Z,174.13
2022-08-01T00:47:59.816Z,173.53
2022-08-01T00:50:27.809Z,174.10
2022-08-01T00:52:57.411Z,173.27
2022-08-01T00:55:25.716Z,173.63
2022-08-01T00:58:03.039Z,174.53
2022-08-01T01:00:53.037Z,173.47
2022-08-01T01:03:33.331Z,173.27
2022-08-01T01:06:29.020Z,173.87
2022-08-01T01:09:10.366Z,173.83
2022-08-01T01:11:46.110Z,173.87
2022-08-01T01:14:23.301Z,173.50
2022-08-01T01:16:53.001Z,174.30
2022-08-01T01:19:27.859Z,174.17
2022-08-01T01:22:19.691Z,173.73
2022-08-01T01:25:02.430Z,174.37
2022-08-01T01:27:41.445Z,174.37
2022-08-01T01:30:11.336Z,173.57
2022-08-01T01:32:43.741Z,173.80
2022-08-01T01:35:17.470Z,173.10
2022-08-01T01:37:47.424Z,172.70
2022-08-01T01:40:17.191Z,173.43
2022-08-01T01:42:45.959Z,173.80
2022-08-01T01:45:16.179Z,174.73
2022-08-01T01:47:46.371Z,174.13
2022-08-01T01:50:15.319Z,173.03
2022-08-01T01:52:46.157Z,173.47
2022-08-01T01:55:14.752Z,172.50
2022-08-01T01:57:44.463Z,172.77
2022-08-01T02:00:15.843Z,172.77
2022-08-01T02:02:44.946Z,173.50
2022-08-01T02:05:14.641Z,173.63
2022-08-01T02:07:43.563Z,172.87
2022-08-01T02:10:13.260Z,173.20
2022-08-01T02:12:46.373Z,173.53
2022-08-01T02:15:16.891Z,173.13
2022-08-01T02:17:48.588Z,172.50
2022-08-01T02:20:17.850Z,173.30
2022-08-01T02:22:50.408Z,173.10
2022-08-01T02:25:23.139Z,173.57
2022-08-01T02:28:01.462Z,173.40
2022-08-01T02:30:34.648Z,172.47
2022-08-01T02:33:06.563Z,173.73
2022-08-01T02:36:29.656Z,171.90
2022-08-01T02:38:33.618Z,172.83
2022-08-01T02:41:05.736Z,173.77
2022-08-01T02:43:36.132Z,173.13
2022-08-01T02:46:08.941Z,172.83
2022-08-01T02:48:40.070Z,173.43
2022-08-01T02:51:09.820Z,172.87
2022-08-01T02:53:44.540Z,173.27
2022-08-01T02:56:13.790Z,173.63
2022-08-01T02:58:42.520Z,173.20
2022-08-01T03:01:12.999Z,173.87
2022-08-01T03:03:42.040Z,173.77
2022-08-01T03:06:10.674Z,173.50
2022-08-01T03:08:40.064Z,174.07
2022-08-01T03:11:10.325Z,172.87
2022-08-01T03:13:39.312Z,173.67
2022-08-01T03:16:07.772Z,173.17
2022-08-01T03:18:38.221Z,173.67
2022-08-01T03:21:08.834Z,173.17
2022-08-01T03:23:38.914Z,173.87
2022-08-01T03:26:07.673Z,173.63
2022-08-01T03:28:35.648Z,172.37
2022-08-01T03:31:04.366Z,172.97
2022-08-01T03:33:33.031Z,173.30
2022-08-01T03:36:03.899Z,172.83
2022-08-01T03:38:35.063Z,172.57
2022-08-01T03:41:11.459Z,172.43
2022-08-01T03:43:42.471Z,173.17
2022-08-01T03:46:15.312Z,172.93
2022-08-01T03:48:48.568Z,173.80
2022-08-01T03:51:19.753Z,173.33
2022-08-01T03:53:49.267Z,172.43
2022-08-01T03:56:21.448Z,172.83
2022-08-01T03:58:50.500Z,173.50
2022-08-01T04:01:19.862Z,173.67
2022-08-01T04:03:48.112Z,173.43
2022-08-01T04:06:18.159Z,173.47
2022-08-01T04:08:56.180Z,173.47
2022-08-01T04:11:26.023Z,173.93
2022-08-01T04:13:55.265Z,173.87
2022-08-01T04:16:23.720Z,173.00
2022-08-01T04:18:51.783Z,172.60
2022-08-01T04:21:24.733Z,173.10
2022-08-01T04:23:55.989Z,173.13
2022-08-01T04:26:25.161Z,172.77
2022-08-01T04:28:56.070Z,172.10
2022-08-01T04:31:27.256Z,172.03
2022-08-01T04:33:56.739Z,171.77
2022-08-01T04:36:27.698Z,172.73
2022-08-01T04:39:01.264Z,172.50
2022-08-01T04:41:29.752Z,171.87
2022-08-01T04:44:00.191Z,173.23
2022-08-01T04:46:29.573Z,172.30
2022-08-01T04:48:57.805Z,173.33
2022-08-01T04:51:27.035Z,171.63
2022-08-01T04:53:54.889Z,172.47
2022-08-01T04:56:22.899Z,173.07
2022-08-01T04:59:19.615Z,171.90
2022-08-01T05:01:51.363Z,172.43
2022-08-01T05:04:19.427Z,172.33
2022-08-01T05:06:48.619Z,172.33
2022-08-01T05:09:16.875Z,172.73
2022-08-01T05:11:44.828Z,171.90
2022-08-01T05:14:12.654Z,170.83
2022-08-01T05:16:40.988Z,171.27
2022-08-01T05:19:09.060Z,171.43
2022-08-01T05:21:37.279Z,170.53
2022-08-01T05:24:06.972Z,170.80
2022-08-01T05:26:34.983Z,170.37
2022-08-01T05:29:04.378Z,170.87
2022-08-01T05:31:34.985Z,170.40
2022-08-01T05:34:03.344Z,169.93
2022-08-01T05:36:31.495Z,170.10
2022-08-01T05:38:59.345Z,170.97
2022-08-01T05:41:28.532Z,170.13
2022-08-01T05:43:56.320Z,171.37
2022-08-01T05:46:24.215Z,170.70
2022-08-01T05:48:55.734Z,170.27
2022-08-01T05:51:23.643Z,170.60
2022-08-01T05:53:51.471Z,170.73
2022-08-01T05:56:19.651Z,170.13
2022-08-01T05:58:49.056Z,169.70
2022-08-01T06:01:17.242Z,170.87
2022-08-01T06:03:45.089Z,170.33
2022-08-01T06:06:13.366Z,169.70
2022-08-01T06:08:41.213Z,170.33
2022-08-01T06:11:09.069Z,170.03
2022-08-01T06:13:45.303Z,170.67
2022-08-01T06:16:18.633Z,170.73
2022-08-01T06:18:46.495Z,171.07
2022-08-01T06:21:14.332Z,170.77
2022-08-01T06:23:43.157Z,171.63
2022-08-01T06:26:11.460Z,171.20
2022-08-01T06:28:39.404Z,170.47
2022-08-01T06:31:07.625Z,170.77
2022-08-01T06:33:36.812Z,171.00
2022-08-01T06:36:05.312Z,171.03
2022-08-01T06:38:33.267Z,170.53
2022-08-01T06:41:01.121Z,170.93
2022-08-01T06:43:28.959Z,170.40
2022-08-01T06:45:56.802Z,169.90
2022-08-01T06:48:24.665Z,169.67
2022-08-01T06:51:08.599Z,170.40
2022-08-01T06:53:37.528Z,170.33
2022-08-01T06:56:06.373Z,169.47
2022-08-01T06:58:35.364Z,170.30
2022-08-01T07:01:06.691Z,169.57
2022-08-01T07:03:52.417Z,170.50
2022-08-01T07:06:24.735Z,169.70
2022-08-01T07:08:52.723Z,169.47
2022-08-01T07:11:20.702Z,170.03
2022-08-01T07:13:48.605Z,169.77
2022-08-01T07:16:17.032Z,170.00
2022-08-01T07:18:45.578Z,169.37
2022-08-01T07:21:39.286Z,169.60
2022-08-01T07:24:03.008Z,169.87
2022-08-01T07:26:52.474Z,170.13
2022-08-01T07:29:22.911Z,169.17
2022-08-01T07:31:50.828Z,170.57
2022-08-01T07:34:18.672Z,170.10
2022-08-01T07:36:47.728Z,169.67
2022-08-01T07:39:16.882Z,169.43
2022-08-01T07:42:05.760Z,170.30
2022-08-01T07:44:32.688Z,171.03
2022-08-01T07:47:00.488Z,170.13
2022-08-01T07:49:28.510Z,170.43
2022-08-01T07:52:13.518Z,171.33
2022-08-01T07:54:42.919Z,171.60
2022-08-01T07:57:10.871Z,170.87
2022-08-01T07:59:38.772Z,170.40
2022-08-01T08:02:07.066Z,170.90
2022-08-01T08:04:35.243Z,171.33
2022-08-01T08:07:03.827Z,170.30
2022-08-01T08:09:37.859Z,170.07
2022-08-01T08:12:08.908Z,170.77
2022-08-01T08:14:37.085Z,169.30
2022-08-01T08:17:05.015Z,170.30
2022-08-01T08:19:38.617Z,170.10
2022-08-01T08:22:08.111Z,172.13
2022-08-01T08:24:36.356Z,171.77
2022-08-01T08:27:16.003Z,171.43
2022-08-01T08:29:43.857Z,171.77
2022-08-01T08:32:13.270Z,170.87
2022-08-01T08:34:42.082Z,171.83
2022-08-01T08:37:09.906Z,171.50
2022-08-01T08:39:41.346Z,170.03
2022-08-01T08:42:11.225Z,171.07
2022-08-01T08:44:43.622Z,169.90
2022-08-01T08:47:19.082Z,170.67
2022-08-01T08:49:49.549Z,170.50
2022-08-01T08:52:19.361Z,170.83
2022-08-01T08:54:47.853Z,171.73
2022-08-01T08:57:16.173Z,170.87
2022-08-01T08:59:46.772Z,170.80
2022-08-01T09:02:15.467Z,170.93
2022-08-01T09:04:43.685Z,171.20
2022-08-01T09:07:12.684Z,171.03
2022-08-01T09:09:41.872Z,171.33
2022-08-01T09:12:10.826Z,171.63
2022-08-01T09:14:50.581Z,172.07
2022-08-01T09:17:18.544Z,170.63
2022-08-01T09:19:48.762Z,171.23
2022-08-01T09:22:19.406Z,170.83
2022-08-01T09:25:00.575Z,171.13
2022-08-01T09:27:28.476Z,171.93
2022-08-01T09:30:10.244Z,171.83
2022-08-01T09:32:55.275Z,170.30
2022-08-01T09:35:30.914Z,171.83
2022-08-01T09:38:19.494Z,171.80
2022-08-01T09:40:49.579Z,171.27
2022-08-01T09:43:19.121Z,172.30
2022-08-01T09:45:50.710Z,172.73
2022-08-01T09:48:22.685Z,172.73
2022-08-01T09:50:56.301Z,172.33
2022-08-01T09:53:50.831Z,172.23
2022-08-01T09:56:20.869Z,172.47
2022-08-01T09:58:59.939Z,172.23
2022-08-01T10:01:36.985Z,171.57
2022-08-01T10:04:11.934Z,171.27
2022-08-01T10:06:41.765Z,170.40
2022-08-01T10:09:11.222Z,171.20
2022-08-01T10:11:40.795Z,171.03
2022-08-01T10:14:09.872Z,171.60
2022-08-01T10:16:40.024Z,171.57
2022-08-01T10:19:11.258Z,172.70
2022-08-01T10:21:57.947Z,172.70
2022-08-01T10:24:28.911Z,171.83
2022-08-01T10:27:06.142Z,172.67
2022-08-01T10:29:46.287Z,171.20
2022-08-01T10:32:29.297Z,171.40
2022-08-01T10:34:58.407Z,170.23
2022-08-01T10:37:27.170Z,171.13
2022-08-01T10:40:14.228Z,171.50
2022-08-01T10:42:45.271Z,171.30
2022-08-01T10:45:15.740Z,170.33
2022-08-01T10:47:51.233Z,171.40
2022-08-01T10:50:26.728Z,170.70
2022-08-01T10:53:16.643Z,172.00
2022-08-01T10:56:02.886Z,170.53
2022-08-01T10:58:39.426Z,170.90
2022-08-01T11:01:25.850Z,171.97
2022-08-01T11:04:07.362Z,171.50
2022-08-01T11:07:05.691Z,172.83
2022-08-01T11:09:41.549Z,172.00
2022-08-01T11:12:13.245Z,172.27
2022-08-01T11:15:30.152Z,172.30
2022-08-01T11:18:00.549Z,171.07
2022-08-01T11:20:32.088Z,172.07
2022-08-01T11:23:29.609Z,171.93
2022-08-01T11:26:29.131Z,171.13
2022-08-01T11:29:21.724Z,172.20
2022-08-01T11:31:51.000Z,172.53
2022-08-01T11:34:18.827Z,171.13
2022-08-01T11:36:58.851Z,172.90
2022-08-01T11:39:27.851Z,172.97
2022-08-01T11:42:17.288Z,171.43
2022-08-01T11:44:51.039Z,172.60
2022-08-01T11:47:21.082Z,172.77
2022-08-01T11:49:55.648Z,171.60
2022-08-01T11:52:29.165Z,172.37
2022-08-01T11:54:58.719Z,173.03
2022-08-01T11:57:34.599Z,172.57
2022-08-01T12:00:08.443Z,172.93
2022-08-01T12:02:42.926Z,173.23
2022-08-01T12:05:15.327Z,172.73
2022-08-01T12:07:47.132Z,173.33
2022-08-01T12:10:16.947Z,174.70
2022-08-01T12:12:46.286Z,172.27
2022-08-01T12:15:15.039Z,172.70
2022-08-01T12:17:47.056Z,173.47
2022-08-01T12:20:30.473Z,173.27
2022-08-01T12:23:02.619Z,172.30
2022-08-01T12:25:31.295Z,173.10
2022-08-01T12:28:03.068Z,173.53
2022-08-01T12:30:32.716Z,173.10
2022-08-01T12:33:00.700Z,173.60
2022-08-01T12:35:30.592Z,173.27
2022-08-01T12:38:02.080Z,172.87
2022-08-01T12:40:31.851Z,173.03
2022-08-01T12:43:03.027Z,173.27
2022-08-01T12:45:36.273Z,172.80
2022-08-01T12:48:09.024Z,173.23
2022-08-01T12:50:39.794Z,172.43
2022-08-01T12:53:10.805Z,173.23
2022-08-01T12:55:58.509Z,173.70
2022-08-01T12:58:32.095Z,171.67
2022-08-01T13:01:05.781Z,171.93
2022-08-01T13:03:33.670Z,169.87
2022-08-01T13:06:02.551Z,170.30
2022-08-01T13:08:34.596Z,170.93
2022-08-01T13:11:03.458Z,171.97
2022-08-01T13:13:41.131Z,171.80
2022-08-01T13:16:12.400Z,170.37
2022-08-01T13:18:52.631Z,170.97
2022-08-01T13:21:22.020Z,170.93
2022-08-01T13:24:06.093Z,171.90
2022-08-01T13:26:43.411Z,172.23
2022-08-01T13:29:13.023Z,171.53
2022-08-01T13:31:42.236Z,172.63
2022-08-01T13:34:11.011Z,171.53
2022-08-01T13:36:39.455Z,172.60
2022-08-01T13:39:27.107Z,172.23
2022-08-01T13:41:54.891Z,172.20
2022-08-01T13:44:22.683Z,171.87
2022-08-01T13:46:51.499Z,171.87
2022-08-01T13:49:20.130Z,172.33
2022-08-01T13:51:50.870Z,171.73
2022-08-01T13:54:20.098Z,172.00
2022-08-01T13:56:47.969Z,172.17
2022-08-01T13:59:15.778Z,171.93
2022-08-01T14:01:43.994Z,172.40
2022-08-01T14:04:11.930Z,172.60
2022-08-01T14:06:39.729Z,171.23
2022-08-01T14:09:18.236Z,172.27
2022-08-01T14:11:53.691Z,171.23
2022-08-01T14:14:21.586Z,173.20
2022-08-01T14:16:49.464Z,170.93
2022-08-01T14:19:19.381Z,172.53
2022-08-01T14:22:05.085Z,171.87
2022-08-01T14:24:33.050Z,173.03
2022-08-01T14:27:03.025Z,172.47
2022-08-01T14:30:02.006Z,172.83
2022-08-01T14:32:18.748Z,172.63
2022-08-01T14:34:50.236Z,172.00
2022-08-01T14:37:18.047Z,171.37
2022-08-01T14:39:45.883Z,173.37
2022-08-01T14:42:23.751Z,172.70
2022-08-01T14:44:51.700Z,172.13
2022-08-01T14:47:21.420Z,171.90
2022-08-01T14:49:50.317Z,172.23
2022-08-01T14:52:18.493Z,172.80
2022-08-01T14:54:46.340Z,171.93
2022-08-01T14:57:14.288Z,172.70
2022-08-01T14:59:43.397Z,173.23
2022-08-01T15:02:12.184Z,172.17
2022-08-01T15:04:40.126Z,172.97
2022-08-01T15:07:07.988Z,172.07
2022-08-01T15:09:36.624Z,172.60
2022-08-01T15:12:05.057Z,171.60
2022-08-01T15:14:51.378Z,172.37
2022-08-01T15:17:22.532Z,172.13
2022-08-01T15:19:53.446Z,172.73
2022-08-01T15:22:22.811Z,172.03
2022-08-01T15:24:56.843Z,172.80
2022-08-01T15:27:25.487Z,173.37
2022-08-01T15:29:53.966Z,171.67
2022-08-01T15:32:23.714Z,172.40
2022-08-01T15:34:51.554Z,172.63
2022-08-01T15:37:19.525Z,172.10
2022-08-01T15:39:47.463Z,171.93
2022-08-01T15:42:23.847Z,172.90
2022-08-01T15:44:54.606Z,172.63
2022-08-01T15:47:25.102Z,172.03
2022-08-01T15:49:53.307Z,172.20
2022-08-01T15:52:23.087Z,173.10
2022-08-01T15:54:58.630Z,173.10
2022-08-01T15:57:26.441Z,173.13
2022-08-01T15:59:54.297Z,172.37
2022-08-01T16:02:23.575Z,173.37
2022-08-01T16:04:51.467Z,172.50
2022-08-01T16:07:19.262Z,172.87
2022-08-01T16:09:47.060Z,171.87
2022-08-01T16:12:14.909Z,171.90
2022-08-01T16:14:42.815Z,172.73
2022-08-01T16:17:10.615Z,173.00
2022-08-01T16:19:40.713Z,173.40
2022-08-01T16:22:09.030Z,172.30
2022-08-01T16:24:37.344Z,172.03
2022-08-01T16:27:05.513Z,172.93
2022-08-01T16:29:34.631Z,172.67
2022-08-01T16:32:10.823Z,172.57
2022-08-01T16:34:42.046Z,174.23
2022-08-01T16:37:14.923Z,172.70
2022-08-01T16:39:42.905Z,173.30
2022-08-01T16:42:11.172Z,172.80
2022-08-01T16:44:39.759Z,172.73
2022-08-01T16:47:07.854Z,172.63
2022-08-01T16:49:37.421Z,173.23
2022-08-01T16:52:07.330Z,172.67
2022-08-01T16:54:35.644Z,172.70
2022-08-01T16:57:08.518Z,173.57
2022-08-01T16:59:40.891Z,173.23
2022-08-01T17:02:10.265Z,173.37
2022-08-01T17:04:38.327Z,173.47
2022-08-01T17:07:08.344Z,172.83
2022-08-01T17:09:41.169Z,173.03
2022-08-01T17:12:12.995Z,174.23
2022-08-01T17:14:48.848Z,174.53
2022-08-01T17:17:16.652Z,174.17
2022-08-01T17:19:44.472Z,172.93
2022-08-01T17:22:14.031Z,173.60
2022-08-01T17:24:42.033Z,173.23
2022-08-01T17:27:12.984Z,173.73
2022-08-01T17:29:43.756Z,173.30
2022-08-01T17:32:12.246Z,173.93
2022-08-01T17:34:40.129Z,173.67
2022-08-01T17:37:08.762Z,173.63
2022-08-01T17:39:40.075Z,173.20
2022-08-01T17:42:08.969Z,173.97
2022-08-01T17:44:36.783Z,173.67
2022-08-01T17:47:05.967Z,174.23
2022-08-01T17:49:53.943Z,174.10
2022-08-01T17:52:22.861Z,172.40
2022-08-01T17:54:55.194Z,173.47
2022-08-01T17:57:23.026Z,173.73
2022-08-01T17:59:51.439Z,173.47
2022-08-01T18:02:19.644Z,174.00
2022-08-01T18:04:48.706Z,173.87
2022-08-01T18:07:19.449Z,172.83
2022-08-01T18:09:47.538Z,173.60
2022-08-01T18:12:18.334Z,174.07
2022-08-01T18:14:46.684Z,174.27
2022-08-01T18:17:14.910Z,174.33
2022-08-01T18:19:46.602Z,173.93
2022-08-01T18:22:31.733Z,174.03
2022-08-01T18:25:08.320Z,173.63
2022-08-01T18:28:16.271Z,173.77
2022-08-01T18:30:25.972Z,173.07
2022-08-01T18:32:54.703Z,173.97
2022-08-01T18:35:24.242Z,172.50
2022-08-01T18:38:10.528Z,172.37
2022-08-01T18:40:39.392Z,173.63
2022-08-01T18:43:08.788Z,173.33
2022-08-01T18:45:40.797Z,173.70
2022-08-01T18:48:10.508Z,174.13
2022-08-01T18:50:39.336Z,174.20
2022-08-01T18:53:07.616Z,174.57
2022-08-01T18:55:35.465Z,175.87
2022-08-01T18:58:03.497Z,174.90
2022-08-01T19:00:32.756Z,175.10
2022-08-01T19:03:00.630Z,173.70
2022-08-01T19:05:28.436Z,173.30
2022-08-01T19:08:04.779Z,174.93
2022-08-01T19:10:33.534Z,173.10
2022-08-01T19:13:02.184Z,173.57
2022-08-01T19:15:30.051Z,173.53
2022-08-01T19:17:59.212Z,172.67
2022-08-01T19:20:27.305Z,173.77
2022-08-01T19:22:55.219Z,173.60
2022-08-01T19:25:23.927Z,173.87
2022-08-01T19:27:53.419Z,174.50
2022-08-01T19:30:21.366Z,172.80
2022-08-01T19:32:49.715Z,173.73
2022-08-01T19:35:18.921Z,172.90
2022-08-01T19:37:47.627Z,173.10
2022-08-01T19:40:27.547Z,172.77
2022-08-01T19:42:57.158Z,172.87
2022-08-01T19:45:29.108Z,171.93
2022-08-01T19:47:57.939Z,171.57
2022-08-01T19:50:27.743Z,172.93
2022-08-01T19:52:57.423Z,173.43
2022-08-01T19:55:26.284Z,171.53
2022-08-01T20:00:43.625Z,171.07
2022-08-01T20:03:13.877Z,170.43
2022-08-01T20:05:43.489Z,170.80
2022-08-01T20:08:12.312Z,170.30
2022-08-01T20:10:41.736Z,170.03
2022-08-01T20:13:11.566Z,171.47
2022-08-01T20:15:39.704Z,169.87
2022-08-01T20:18:07.864Z,170.13
2022-08-01T20:20:37.736Z,169.67
2022-08-01T20:23:18.266Z,170.03
2022-08-01T20:25:49.373Z,169.73
2022-08-01T20:28:22.078Z,169.93
2022-08-01T20:30:54.766Z,169.13
2022-08-01T20:33:22.662Z,168.13
2022-08-01T20:35:53.823Z,169.67
2022-08-01T20:38:24.749Z,168.87
2022-08-01T20:40:58.537Z,169.50
2022-08-01T20:43:27.820Z,168.93
2022-08-01T20:45:56.733Z,169.17
2022-08-01T20:48:27.310Z,169.13
2022-08-01T20:51:13.011Z,169.47
2022-08-01T20:53:43.974Z,168.67
2022-08-01T20:56:21.913Z,170.07
2022-08-01T20:59:04.273Z,168.53
2022-08-01T21:01:39.800Z,169.30
2022-08-01T21:04:19.101Z,169.77
2022-08-01T21:06:54.567Z,169.93
2022-08-01T21:09:25.747Z,169.30
2022-08-01T21:12:01.773Z,168.87
2022-08-01T21:14:49.266Z,169.13
2022-08-01T21:17:21.030Z,168.53
2022-08-01T21:19:53.662Z,169.07
2022-08-01T21:22:30.433Z,169.27
2022-08-01T21:25:05.445Z,169.03
2022-08-01T21:27:35.359Z,169.73
2022-08-01T21:30:05.664Z,169.40
2022-08-01T21:32:34.854Z,169.23
2022-08-01T21:35:03.598Z,168.77
2022-08-01T21:37:32.005Z,168.93
2022-08-01T21:40:09.626Z,168.80
2022-08-01T21:42:40.343Z,168.27
2022-08-01T21:45:10.444Z,167.53
2022-08-01T21:47:38.338Z,168.27
2022-08-01T21:50:09.306Z,168.37
2022-08-01T21:52:44.735Z,169.17
2022-08-01T21:55:33.955Z,167.67
2022-08-01T21:58:17.420Z,168.43
2022-08-01T22:00:52.033Z,167.67
2022-08-01T22:03:25.079Z,168.90
2022-08-01T22:05:55.574Z,168.20
2022-08-01T22:08:29.624Z,168.43
2022-08-01T22:11:01.620Z,167.60
2022-08-01T22:13:29.694Z,168.27
2022-08-01T22:15:58.361Z,168.87
2022-08-01T22:18:28.374Z,167.70
2022-08-01T22:20:56.896Z,168.70
2022-08-01T22:23:24.925Z,168.13
2022-08-01T22:25:54.110Z,167.70
2022-08-01T22:28:25.014Z,168.00
2022-08-01T22:30:54.399Z,167.93
2022-08-01T22:33:23.880Z,166.57
2022-08-01T22:35:53.479Z,167.03
2022-08-01T22:38:23.509Z,168.63
2022-08-01T22:40:53.355Z,168.27
2022-08-01T22:43:30.386Z,169.10
2022-08-01T22:46:10.658Z,168.03
2022-08-01T22:48:45.877Z,168.83
2022-08-01T22:51:41.224Z,167.43
2022-08-01T22:54:13.823Z,168.07
2022-08-01T22:56:44.949Z,167.80
2022-08-01T22:59:16.762Z,168.40
2022-08-01T23:01:50.619Z,168.63
2022-08-01T23:04:31.232Z,168.23
2022-08-01T23:07:05.865Z,168.77
2022-08-01T23:09:53.148Z,168.40
2022-08-01T23:12:25.112Z,168.77
2022-08-01T23:14:56.303Z,168.70
2022-08-01T23:17:28.914Z,166.93
2022-08-01T23:19:59.062Z,167.43
2022-08-01T23:22:31.375Z,167.87
2022-08-01T23:25:04.246Z,166.87
2022-08-01T23:27:51.469Z,166.17
2022-08-01T23:30:26.392Z,166.23
2022-08-01T23:32:54.825Z,166.97
2022-08-01T23:35:23.585Z,167.17
2022-08-01T23:37:52.196Z,166.43
2022-08-01T23:40:20.728Z,166.23
2022-08-01T23:42:53.326Z,166.43
2022-08-01T23:45:22.283Z,166.07
2022-08-01T23:47:51.614Z,165.93
2022-08-01T23:50:21.882Z,166.23
2022-08-01T23:52:51.152Z,167.33
2022-08-01T23:55:19.884Z,165.97
2022-08-01T23:57:57.998Z,165.70
